createdAt,value
2017-12-02T13:34:55.290Z,988.4
2017-12-02T13:35:59.272Z,988.4
2017-12-02T13:37:02.371Z,988.5
2017-12-02T13:38:09.853Z,988.4
2017-12-02T13:39:12.995Z,988.4
2017-12-02T13:40:19.073Z,988.5
2017-12-02T13:41:22.754Z,988.4
2017-12-02T13:42:27.804Z,988.4
2017-12-02T13:43:31.577Z,988.4
2017-12-02T13:44:34.401Z,988.4
2017-12-02T13:45:38.950Z,988.3
2017-12-02T13:46:47.836Z,988.4
2017-12-02T13:47:51.179Z,988.3
2017-12-02T13:48:53.973Z,988.2
2017-12-02T13:49:56.499Z,988.3
2017-12-02T13:51:00.638Z,988.3
2017-12-02T13:52:03.387Z,988.3
2017-12-02T13:53:07.524Z,988.3
2017-12-02T13:54:11.313Z,988.3
2017-12-02T13:55:18.224Z,988.4
2017-12-02T13:56:21.735Z,988.3
2017-12-02T13:57:25.421Z,988.4
2017-12-02T13:58:28.517Z,988.4
2017-12-02T13:59:32.590Z,988.3
2017-12-02T14:00:40.877Z,988.4
2017-12-02T14:01:43.863Z,988.4
2017-12-02T14:02:46.562Z,988.4
2017-12-02T14:03:49.952Z,988.4
2017-12-02T14:04:52.541Z,988.5
2017-12-02T14:05:57.050Z,988.5
2017-12-02T14:07:15.269Z,988.5
2017-12-02T14:08:18.944Z,988.5
2017-12-02T14:09:22.755Z,988.5
2017-12-02T14:10:25.480Z,988.5
2017-12-02T14:11:28.914Z,988.6
2017-12-02T14:12:31.563Z,988.5
2017-12-02T14:13:35.298Z,988.4
2017-12-02T14:14:37.913Z,988.5
2017-12-02T14:15:43.034Z,988.5
2017-12-02T14:16:47.243Z,988.4
2017-12-02T14:17:49.822Z,988.5
2017-12-02T14:18:52.262Z,988.5
2017-12-02T14:19:54.856Z,988.5
2017-12-02T14:20:59.513Z,988.6
2017-12-02T14:22:02.462Z,988.6
2017-12-02T14:23:08.138Z,988.4
2017-12-02T14:24:10.994Z,988.6
2017-12-02T14:25:15.950Z,988.6
2017-12-02T14:26:18.616Z,988.5
2017-12-02T14:27:21.590Z,988.6
2017-12-02T14:28:24.388Z,988.6
2017-12-02T14:29:29.286Z,988.5
2017-12-02T14:30:34.120Z,988.6
2017-12-02T14:31:38.370Z,988.6
2017-12-02T14:32:43.025Z,988.6
2017-12-02T14:33:45.878Z,988.6
2017-12-02T14:34:50.855Z,988.5
2017-12-02T14:35:54.640Z,988.7
2017-12-02T14:36:57.440Z,988.7
2017-12-02T14:38:04.582Z,988.7
2017-12-02T14:39:12.822Z,988.7
2017-12-02T14:40:21.657Z,988.7
2017-12-02T14:41:24.735Z,988.8
2017-12-02T14:42:27.847Z,988.8
2017-12-02T14:43:31.968Z,988.8
2017-12-02T14:44:39.937Z,988.8
2017-12-02T14:45:45.206Z,988.8
2017-12-02T14:46:49.036Z,988.8
2017-12-02T14:47:51.795Z,988.8
2017-12-02T14:48:54.989Z,988.7
2017-12-02T14:49:57.757Z,988.8
2017-12-02T14:51:01.344Z,988.8
2017-12-02T14:52:07.002Z,988.9
2017-12-02T14:53:13.528Z,988.8
2017-12-02T14:54:19.002Z,988.8
2017-12-02T14:55:23.102Z,988.7
2017-12-02T14:56:28.866Z,988.8
2017-12-02T14:57:31.732Z,988.7
2017-12-02T14:58:34.669Z,988.7
2017-12-02T14:59:38.668Z,988.8
2017-12-02T15:00:43.886Z,988.7
2017-12-02T15:01:48.238Z,988.8
2017-12-02T15:02:50.956Z,988.8
2017-12-02T15:03:53.546Z,988.8
2017-12-02T15:04:56.237Z,988.8
2017-12-02T15:05:59.222Z,988.8
2017-12-02T15:07:01.918Z,988.9
2017-12-02T15:08:06.188Z,988.8
2017-12-02T15:09:09.813Z,988.7
2017-12-02T15:10:14.705Z,988.9
2017-12-02T15:11:22.415Z,988.9
2017-12-02T15:12:25.076Z,988.8
2017-12-02T15:13:27.871Z,988.9
2017-12-02T15:14:33.106Z,988.9
2017-12-02T15:15:37.984Z,988.9
2017-12-02T15:16:43.027Z,988.7
2017-12-02T15:17:46.056Z,988.9
2017-12-02T15:18:48.918Z,988.9
2017-12-02T15:19:51.473Z,988.8
2017-12-02T15:20:58.849Z,988.8
2017-12-02T15:22:01.865Z,988.9
2017-12-02T15:23:07.481Z,988.8
2017-12-02T15:24:12.360Z,988.8
2017-12-02T15:25:18.389Z,988.9
2017-12-02T15:26:27.517Z,988.8
2017-12-02T15:29:55.020Z,988.8
2017-12-02T15:31:03.314Z,988.8
2017-12-02T15:32:07.362Z,988.7
2017-12-02T15:33:10.821Z,988.7
2017-12-02T15:34:16.273Z,988.7
2017-12-02T15:35:21.942Z,988.6
2017-12-02T15:36:24.627Z,988.7
2017-12-02T15:37:28.411Z,988.8
2017-12-02T15:38:31.187Z,988.8
2017-12-02T15:39:34.036Z,988.8
2017-12-02T15:40:38.115Z,988.6
2017-12-02T15:41:43.338Z,988.6
2017-12-02T15:42:46.237Z,988.8
2017-12-02T15:43:51.622Z,988.8
2017-12-02T15:44:54.441Z,988.8
2017-12-02T15:45:57.832Z,988.9
2017-12-02T15:47:09.249Z,988.9
2017-12-02T15:48:12.801Z,988.9
2017-12-02T15:49:15.638Z,988.9
2017-12-02T15:50:22.744Z,988.9
2017-12-02T15:51:29.165Z,988.9
2017-12-02T15:52:32.623Z,988.9
2017-12-02T15:53:35.675Z,988.7
2017-12-02T15:54:40.333Z,988.9
2017-12-02T15:55:44.583Z,988.9
2017-12-02T15:56:48.118Z,988.9
2017-12-02T15:57:50.831Z,988.9
2017-12-02T15:58:53.911Z,988.9
2017-12-02T15:59:56.769Z,988.9
2017-12-02T16:01:07.728Z,988.9
2017-12-02T16:02:11.614Z,989
2017-12-02T16:03:15.138Z,989
2017-12-02T16:04:18.776Z,988.8
2017-12-02T16:05:22.834Z,989
2017-12-02T16:06:25.640Z,989
2017-12-02T16:07:29.942Z,989
2017-12-02T16:08:34.314Z,989
2017-12-02T16:09:37.218Z,989
2017-12-02T16:10:44.705Z,989
2017-12-02T16:11:48.961Z,989
2017-12-02T16:12:53.470Z,989
2017-12-02T16:13:57.389Z,989
2017-12-02T16:15:00.188Z,989
2017-12-02T16:16:06.797Z,989.1
2017-12-02T16:17:10.690Z,989.1
2017-12-02T16:18:13.557Z,988.9
2017-12-02T16:19:16.364Z,989.1
2017-12-02T16:20:20.501Z,989
2017-12-02T16:21:28.344Z,989.1
2017-12-02T16:22:33.749Z,989
2017-12-02T16:23:41.520Z,989.1
2017-12-02T16:24:44.498Z,989.2
2017-12-02T16:25:48.388Z,989.1
2017-12-02T16:26:53.298Z,989.1
2017-12-02T16:27:56.400Z,989.1
2017-12-02T16:29:00.217Z,989
2017-12-02T16:30:14.951Z,989.1
2017-12-02T16:31:17.979Z,989.2
2017-12-02T16:32:22.421Z,989.1
2017-12-02T16:33:25.537Z,989.1
2017-12-02T16:34:29.371Z,989.2
2017-12-02T16:35:33.344Z,989.1
2017-12-02T16:36:36.664Z,989.1
2017-12-02T16:37:44.081Z,989.1
2017-12-02T16:38:47.429Z,989.1
2017-12-02T16:39:51.387Z,989.1
2017-12-02T16:40:54.114Z,988.9
2017-12-02T16:41:57.582Z,989.1
2017-12-02T16:43:00.253Z,989.1
2017-12-02T16:44:03.034Z,989.1
2017-12-02T16:45:17.433Z,989.1
2017-12-02T16:46:20.700Z,989.1
2017-12-02T16:47:23.693Z,989.1
2017-12-02T16:48:26.868Z,989.1
2017-12-02T16:49:30.947Z,988.9
2017-12-02T16:50:39.297Z,989.1
2017-12-02T16:51:44.248Z,989.1
2017-12-02T16:52:46.960Z,989.1
2017-12-02T16:53:50.420Z,989.1
2017-12-02T16:54:52.993Z,989.1
2017-12-02T16:55:57.032Z,989.1
2017-12-02T16:56:59.781Z,989.1
2017-12-02T16:58:08.420Z,989.1
2017-12-02T16:59:17.971Z,989.1
2017-12-02T17:00:22.790Z,989.1
2017-12-02T17:01:28.595Z,989.1
2017-12-02T17:02:32.892Z,989.1
2017-12-02T17:03:36.711Z,989.1
2017-12-02T17:04:41.153Z,989
2017-12-02T17:05:49.815Z,989.1
2017-12-02T17:06:54.001Z,989
2017-12-02T17:07:57.354Z,989.1
2017-12-02T17:09:01.249Z,989.1
2017-12-02T17:11:21.232Z,989
2017-12-02T17:12:24.896Z,989.1
2017-12-02T17:13:29.196Z,989.1
2017-12-02T17:14:32.336Z,989.1
2017-12-02T17:15:38.358Z,989.1
2017-12-02T17:16:46.823Z,989.1
2017-12-02T17:17:52.446Z,989.1
2017-12-02T17:18:57.772Z,989.1
2017-12-02T17:20:01.124Z,989.1
2017-12-02T17:21:09.335Z,989.1
2017-12-02T17:22:17.838Z,989.1
2017-12-02T17:23:27.879Z,989.2
2017-12-02T17:24:31.419Z,989
2017-12-02T17:25:37.375Z,989.2
2017-12-02T17:27:55.138Z,989.2
2017-12-02T17:28:59.421Z,989.2
2017-12-02T17:30:30.864Z,989
2017-12-02T17:31:35.676Z,989.2
2017-12-02T17:32:38.760Z,989.1
2017-12-02T17:33:44.320Z,989.2
2017-12-02T17:34:50.021Z,989.1
2017-12-02T17:35:53.449Z,989.2
2017-12-02T17:36:59.673Z,989.2
2017-12-02T17:38:09.555Z,989.2
2017-12-02T17:39:12.794Z,989.2
2017-12-02T17:40:22.353Z,989.2
2017-12-02T17:41:25.722Z,989.2
2017-12-02T17:42:28.715Z,989.2
2017-12-02T17:43:31.588Z,989.1
2017-12-02T17:44:34.458Z,989.2
2017-12-02T17:45:38.149Z,989.2
2017-12-02T17:46:41.586Z,989.2
2017-12-02T17:47:44.265Z,989.1
2017-12-02T17:48:46.809Z,989.2
2017-12-02T17:49:53.656Z,989.2
2017-12-02T17:51:01.656Z,989.2
2017-12-02T17:52:14.053Z,989.2
2017-12-02T17:53:18.350Z,989.2
2017-12-02T17:54:25.103Z,989.3
2017-12-02T17:55:29.201Z,989.3
2017-12-02T17:56:38.278Z,989.3
2017-12-02T17:57:40.903Z,989.2
2017-12-02T17:58:43.519Z,989.2
2017-12-02T17:59:46.128Z,989.2
2017-12-02T18:00:52.717Z,989.2
2017-12-02T18:02:02.222Z,989.3
2017-12-02T18:03:05.597Z,989.2
2017-12-02T18:04:09.284Z,989.2
2017-12-02T18:05:17.108Z,989.1
2017-12-02T18:06:24.034Z,989.2
2017-12-02T18:07:26.757Z,989.3
2017-12-02T18:08:29.710Z,989.3
2017-12-02T18:09:32.451Z,989.2
2017-12-02T18:10:35.630Z,989.3
2017-12-02T18:11:46.409Z,989.3
2017-12-02T18:12:51.647Z,989.3
2017-12-02T18:13:54.134Z,989.3
2017-12-02T18:14:57.653Z,989.3
2017-12-02T18:16:00.523Z,989.3
2017-12-02T18:17:05.988Z,989.3
2017-12-02T18:18:13.953Z,989.2
2017-12-02T18:19:17.311Z,989.3
2017-12-02T18:20:23.599Z,989.3
2017-12-02T18:21:27.097Z,989.1
2017-12-02T18:22:30.517Z,989.2
2017-12-02T18:23:34.924Z,989.2
2017-12-02T18:24:45.035Z,989.1
2017-12-02T18:25:49.460Z,989.1
2017-12-02T18:26:52.408Z,989.1
2017-12-02T18:27:54.832Z,989.1
2017-12-02T18:28:58.077Z,989.2
2017-12-02T18:30:00.685Z,989.2
2017-12-02T18:32:18.371Z,989.1
2017-12-02T18:33:21.009Z,989.3
2017-12-02T18:34:23.522Z,989.2
2017-12-02T18:35:26.883Z,989.1
2017-12-02T18:36:34.830Z,989.3
2017-12-02T18:37:38.426Z,989.3
2017-12-02T18:38:41.235Z,989.3
2017-12-02T18:39:43.765Z,989.3
2017-12-02T18:40:47.571Z,989.3
2017-12-02T18:41:50.239Z,989.3
2017-12-02T18:42:52.698Z,989.3
2017-12-02T18:43:55.354Z,989.3
2017-12-02T18:44:57.899Z,989.3
2017-12-02T18:46:00.515Z,989.3
2017-12-02T18:47:03.072Z,989.2
2017-12-02T18:48:05.637Z,989.2
2017-12-02T18:49:08.641Z,989.2
2017-12-02T18:50:15.992Z,989.2
2017-12-02T18:51:18.795Z,989.2
2017-12-02T18:52:21.387Z,989.1
2017-12-02T18:53:23.963Z,989.2
2017-12-02T18:54:29.584Z,989.2
2017-12-02T18:55:43.683Z,989.2
2017-12-02T18:56:46.941Z,989.2
2017-12-02T18:57:49.561Z,989.2
2017-12-02T18:58:52.151Z,989.2
2017-12-02T18:59:54.644Z,989.2
2017-12-02T19:00:57.606Z,989.2
2017-12-02T19:02:00.213Z,989.2
2017-12-02T19:03:04.529Z,989.2
2017-12-02T19:04:06.954Z,989.2
2017-12-02T19:05:14.280Z,989.2
2017-12-02T19:06:16.835Z,989.2
2017-12-02T19:07:19.729Z,989
2017-12-02T19:08:22.231Z,989.2
2017-12-02T19:09:25.052Z,989.2
2017-12-02T19:11:45.318Z,989.2
2017-12-02T19:12:48.583Z,989.3
2017-12-02T19:13:51.137Z,989.2
2017-12-02T19:14:53.631Z,989.2
2017-12-02T19:15:56.424Z,989.2
2017-12-02T19:16:59.010Z,989.3
2017-12-02T19:18:01.576Z,989.2
2017-12-02T19:19:07.087Z,989.2
2017-12-02T19:20:17.255Z,989.2
2017-12-02T19:21:21.693Z,989.2
2017-12-02T19:22:24.966Z,989.3
2017-12-02T19:23:28.425Z,989.2
2017-12-02T19:24:32.973Z,989.3
2017-12-02T19:25:36.005Z,989.2
2017-12-02T19:26:38.779Z,989.3
2017-12-02T19:27:41.636Z,989.3
2017-12-02T19:28:44.278Z,989.3
2017-12-02T19:29:46.795Z,989.3
2017-12-02T19:30:50.436Z,989.3
2017-12-02T19:31:54.362Z,989.2
2017-12-02T19:32:56.945Z,989.2
2017-12-02T19:33:59.746Z,989.2
2017-12-02T19:35:18.363Z,989.2
2017-12-02T19:36:21.260Z,989.2
2017-12-02T19:37:23.844Z,989.2
2017-12-02T19:38:26.483Z,989.1
2017-12-02T19:39:29.265Z,989.2
2017-12-02T19:40:39.466Z,989.2
2017-12-02T19:41:42.222Z,989.2
2017-12-02T19:42:44.643Z,989.2
2017-12-02T19:43:47.941Z,989.2
2017-12-02T19:44:54.788Z,989
2017-12-02T19:45:58.998Z,989.2
2017-12-02T19:47:01.649Z,989.2
2017-12-02T19:48:04.563Z,989.2
2017-12-02T19:49:08.080Z,989.2
2017-12-02T19:50:17.224Z,989.2
2017-12-02T19:51:20.254Z,989.3
2017-12-02T19:52:35.322Z,989.2
2017-12-02T19:53:40.465Z,989.2
2017-12-02T19:54:43.022Z,989.3
2017-12-02T19:55:45.610Z,989.3
2017-12-02T19:56:48.121Z,989.3
2017-12-02T19:57:50.671Z,989.3
2017-12-02T19:58:53.133Z,989.3
2017-12-02T19:59:55.643Z,989.3
2017-12-02T20:00:59.634Z,989.4
2017-12-02T20:02:02.696Z,989.4
2017-12-02T20:03:08.598Z,989.3
2017-12-02T20:04:11.327Z,989.2
2017-12-02T20:05:15.395Z,989.3
2017-12-02T20:06:26.513Z,989.4
2017-12-02T20:07:29.263Z,989.4
2017-12-02T20:08:32.701Z,989.3
2017-12-02T20:09:35.337Z,989.2
2017-12-02T20:10:39.347Z,989.3
2017-12-02T20:11:41.888Z,989.3
2017-12-02T20:12:44.599Z,989.3
2017-12-02T20:13:47.210Z,989.3
2017-12-02T20:14:49.734Z,989.3
2017-12-02T20:15:53.385Z,989.3
2017-12-02T20:16:55.898Z,989.3
2017-12-02T20:17:58.563Z,989.2
2017-12-02T20:19:01.279Z,989.2
2017-12-02T20:20:15.287Z,989.1
2017-12-02T20:21:21.957Z,989.2
2017-12-02T20:22:24.694Z,989.1
2017-12-02T20:23:28.024Z,989.2
2017-12-02T20:24:32.558Z,989.2
2017-12-02T20:25:35.622Z,989.1
2017-12-02T20:26:39.596Z,989.2
2017-12-02T20:27:42.460Z,989.2
2017-12-02T20:28:47.005Z,989.1
2017-12-02T20:29:50.527Z,989
2017-12-02T20:30:54.170Z,989.1
2017-12-02T20:32:03.276Z,989.1
2017-12-02T20:33:08.142Z,988.9
2017-12-02T20:34:10.790Z,989
2017-12-02T20:35:16.249Z,989.1
2017-12-02T20:36:19.237Z,989
2017-12-02T20:37:21.886Z,989.1
2017-12-02T20:38:24.503Z,989.1
2017-12-02T20:39:28.949Z,989.1
2017-12-02T20:40:31.733Z,989.1
2017-12-02T20:41:34.471Z,989.1
2017-12-02T20:42:37.165Z,989.1
2017-12-02T20:43:39.827Z,989
2017-12-02T20:44:42.877Z,989
2017-12-02T20:45:45.684Z,989
2017-12-02T20:46:48.324Z,989
2017-12-02T20:47:50.834Z,989.1
2017-12-02T20:48:53.324Z,989.1
2017-12-02T20:49:56.103Z,989.1
2017-12-02T20:50:59.068Z,989.1
2017-12-02T20:52:01.550Z,989
2017-12-02T20:53:05.719Z,989
2017-12-02T20:54:08.635Z,989.1
2017-12-02T20:55:15.703Z,989
2017-12-02T20:56:19.151Z,989
2017-12-02T20:57:21.931Z,989
2017-12-02T20:58:24.744Z,989
2017-12-02T20:59:30.895Z,989
2017-12-02T21:00:37.133Z,989.1
2017-12-02T21:01:40.281Z,989.1
2017-12-02T21:02:42.714Z,989.1
2017-12-02T21:03:45.411Z,989.1
2017-12-02T21:04:48.010Z,989
2017-12-02T21:05:52.472Z,989.1
2017-12-02T21:06:55.199Z,989
2017-12-02T21:07:59.896Z,988.9
2017-12-02T21:09:05.918Z,988.9
2017-12-02T21:10:14.206Z,988.9
2017-12-02T21:11:22.889Z,988.8
2017-12-02T21:12:27.845Z,988.9
2017-12-02T21:13:30.885Z,989
2017-12-02T21:14:33.519Z,988.8
2017-12-02T21:15:36.326Z,988.9
2017-12-02T21:16:39.094Z,988.9
2017-12-02T21:17:41.890Z,988.8
2017-12-02T21:18:44.666Z,988.9
2017-12-02T21:19:47.236Z,988.9
2017-12-02T21:20:51.386Z,988.9
2017-12-02T21:21:53.931Z,989
2017-12-02T21:22:59.202Z,988.9
2017-12-02T21:24:02.634Z,988.9
2017-12-02T21:25:15.486Z,988.9
2017-12-02T21:26:18.349Z,988.9
2017-12-02T21:27:22.015Z,988.8
2017-12-02T21:28:24.522Z,988.8
2017-12-02T21:29:30.704Z,988.8
2017-12-02T21:30:33.372Z,988.8
2017-12-02T21:31:41.778Z,988.8
2017-12-02T21:32:44.789Z,988.8
2017-12-02T21:33:48.092Z,988.9
2017-12-02T21:34:50.838Z,988.9
2017-12-02T21:35:54.126Z,988.8
2017-12-02T21:36:57.044Z,988.9
2017-12-02T21:37:59.896Z,988.8
2017-12-02T21:39:03.046Z,988.8
2017-12-02T21:40:14.344Z,988.8
2017-12-02T21:41:17.363Z,988.8
2017-12-02T21:42:20.203Z,988.8
2017-12-02T21:43:22.844Z,988.6
2017-12-02T21:44:25.647Z,988.8
2017-12-02T21:45:29.302Z,988.8
2017-12-02T21:46:32.772Z,988.7
2017-12-02T21:47:35.337Z,988.8
2017-12-02T21:48:39.046Z,988.7
2017-12-02T21:49:42.364Z,988.7
2017-12-02T21:50:45.056Z,988.7
2017-12-02T21:51:47.511Z,988.8
2017-12-02T21:52:50.174Z,988.8
2017-12-02T21:53:52.720Z,988.8
2017-12-02T21:54:55.286Z,988.8
2017-12-02T21:55:57.936Z,988.8
2017-12-02T21:57:00.476Z,988.8
2017-12-02T21:58:04.163Z,988.8
2017-12-02T21:59:08.646Z,988.8
2017-12-02T22:00:18.404Z,988.8
2017-12-02T22:01:21.330Z,988.8
2017-12-02T22:02:24.446Z,988.8
2017-12-02T22:03:27.212Z,988.8
2017-12-02T22:04:31.322Z,988.8
2017-12-02T22:05:34.019Z,988.8
2017-12-02T22:06:37.020Z,988.8
2017-12-02T22:07:39.829Z,988.8
2017-12-02T22:08:42.568Z,988.8
2017-12-02T22:09:45.166Z,988.7
2017-12-02T22:10:48.825Z,988.7
2017-12-02T22:11:51.578Z,988.7
2017-12-02T22:12:54.040Z,988.7
2017-12-02T22:13:56.469Z,988.4
2017-12-02T22:14:59.032Z,988.5
2017-12-02T22:16:01.573Z,988.7
2017-12-02T22:17:04.571Z,988.4
2017-12-02T22:18:07.709Z,988.4
2017-12-02T22:19:10.649Z,988.6
2017-12-02T22:20:16.965Z,988.6
2017-12-02T22:21:19.913Z,988.6
2017-12-02T22:22:23.238Z,988.6
2017-12-02T22:23:25.874Z,988.6
2017-12-02T22:24:31.215Z,988.3
2017-12-02T22:25:34.869Z,988.6
2017-12-02T22:26:37.871Z,988.6
2017-12-02T22:27:40.600Z,988.6
2017-12-02T22:28:43.284Z,988.5
2017-12-02T22:29:45.944Z,988.5
2017-12-02T22:30:49.081Z,988.6
2017-12-02T22:31:51.815Z,988.5
2017-12-02T22:32:54.457Z,988.5
2017-12-02T22:33:57.263Z,988.6
2017-12-02T22:35:00.120Z,988.6
2017-12-02T22:36:04.931Z,988.6
2017-12-02T22:37:09.688Z,988.6
2017-12-02T22:38:12.415Z,988.6
2017-12-02T22:39:18.861Z,988.6
2017-12-02T22:40:22.418Z,988.6
2017-12-02T22:41:28.272Z,988.6
2017-12-02T22:42:31.429Z,988.6
2017-12-02T22:43:34.159Z,988.6
2017-12-02T22:44:37.625Z,988.6
2017-12-02T22:45:41.643Z,988.6
2017-12-02T22:46:44.260Z,988.6
2017-12-02T22:47:48.098Z,988.6
2017-12-02T22:48:50.696Z,988.6
2017-12-02T22:49:53.392Z,988.6
2017-12-02T22:50:56.272Z,988.6
2017-12-02T22:51:59.311Z,988.6
2017-12-02T22:53:02.170Z,988.6
2017-12-02T22:54:04.946Z,988.6
2017-12-02T22:55:13.897Z,988.6
2017-12-02T22:56:17.279Z,988.6
2017-12-02T22:57:20.171Z,988.6
2017-12-02T22:58:23.179Z,988.6
2017-12-02T22:59:25.998Z,988.6
2017-12-02T23:01:42.471Z,988.5
2017-12-02T23:02:45.379Z,988.5
2017-12-02T23:03:48.878Z,988.5
2017-12-02T23:04:51.237Z,988.5
2017-12-02T23:05:55.027Z,988.5
2017-12-02T23:06:57.608Z,988.5
2017-12-02T23:08:00.220Z,988.5
2017-12-02T23:09:24.821Z,988.6
2017-12-02T23:10:28.339Z,988.5
2017-12-02T23:11:31.804Z,988.4
2017-12-02T23:12:35.100Z,988.3
2017-12-02T23:13:38.091Z,988.4
2017-12-02T23:14:41.638Z,988.4
2017-12-02T23:15:44.809Z,988.4
2017-12-02T23:16:47.290Z,988.5
2017-12-02T23:17:49.904Z,988.5
2017-12-02T23:18:55.960Z,988.3
2017-12-02T23:19:59.093Z,988.4
2017-12-02T23:21:08.254Z,988.4
2017-12-02T23:22:11.827Z,988.4
2017-12-02T23:23:15.438Z,988.4
2017-12-02T23:24:18.098Z,988.4
2017-12-02T23:25:24.433Z,988.3
2017-12-02T23:26:32.054Z,988.3
2017-12-02T23:27:43.622Z,988.4
2017-12-02T23:28:50.168Z,988.4
2017-12-02T23:31:10.347Z,988.4
2017-12-02T23:33:26.225Z,988.5
2017-12-02T23:34:30.668Z,988.5
2017-12-02T23:35:33.323Z,988.5
2017-12-02T23:36:36.605Z,988.1
2017-12-02T23:37:40.091Z,988.6
2017-12-02T23:38:42.750Z,988.6
2017-12-02T23:39:45.144Z,988.5
2017-12-02T23:40:47.965Z,988.5
2017-12-02T23:41:50.521Z,988.6
2017-12-02T23:42:52.924Z,988.5
2017-12-02T23:43:55.337Z,988.3
2017-12-02T23:44:57.698Z,988.6
2017-12-02T23:46:00.133Z,988.6
2017-12-02T23:47:02.811Z,988.5
2017-12-02T23:48:05.892Z,988.5
2017-12-02T23:49:08.657Z,988.5
2017-12-02T23:50:14.444Z,988.5
2017-12-02T23:51:17.189Z,988.5
2017-12-02T23:52:20.436Z,988.5
2017-12-02T23:53:22.954Z,988.5
2017-12-02T23:54:25.703Z,988.5
2017-12-02T23:55:28.609Z,988.5
2017-12-02T23:56:31.333Z,988.4
2017-12-02T23:57:35.405Z,988.4
2017-12-02T23:58:38.430Z,988.4
2017-12-02T23:59:41.089Z,988.4
